createdAt,value
2023-02-04T00:10:58.739Z,79.4
2023-02-04T00:22:58.717Z,80.3
2023-02-04T00:34:58.617Z,80.3
2023-02-04T00:46:58.618Z,80.2
2023-02-04T00:58:58.729Z,80.3
2023-02-04T01:10:58.738Z,79.7
2023-02-04T01:22:58.687Z,78.6
2023-02-04T01:34:58.697Z,77.8
2023-02-04T01:46:58.618Z,79.7
2023-02-04T01:58:58.718Z,79.1
2023-02-04T02:10:58.686Z,79.8
2023-02-04T02:22:58.726Z,80.8
2023-02-04T02:34:58.739Z,81.3
2023-02-04T02:46:58.627Z,81.6
2023-02-04T02:58:58.664Z,81.7
2023-02-04T03:10:58.706Z,81.8
2023-02-04T03:22:58.965Z,82.2
2023-02-04T03:34:58.711Z,83.2
2023-02-04T03:46:58.621Z,83.8
2023-02-04T03:58:58.700Z,84.4
2023-02-04T04:10:58.625Z,85.7
2023-02-04T04:22:58.722Z,86.4
2023-02-04T04:34:58.609Z,86.4
2023-02-04T04:46:58.655Z,86.2
2023-02-04T04:58:58.611Z,86.5
2023-02-04T05:10:58.617Z,86.6
2023-02-04T05:22:58.620Z,88.2
2023-02-04T05:34:58.695Z,88.7
2023-02-04T05:46:58.619Z,88.4
2023-02-04T05:58:58.738Z,87.8
2023-02-04T06:10:58.722Z,87.9
2023-02-04T06:22:58.686Z,87.8
2023-02-04T06:34:58.715Z,88.0
2023-02-04T06:46:58.619Z,88.2
2023-02-04T06:58:58.611Z,88.3
2023-02-04T07:10:58.701Z,88.7
2023-02-04T07:22:58.611Z,88.9
2023-02-04T07:34:58.617Z,89.5
2023-02-04T07:46:58.609Z,89.6
2023-02-04T07:58:58.709Z,89.3
2023-02-04T08:10:58.831Z,89.4
2023-02-04T08:22:58.891Z,89.0
2023-02-04T08:34:58.591Z,89.1
2023-02-04T08:46:58.725Z,88.8
2023-02-04T08:58:58.735Z,88.0
2023-02-04T09:10:58.710Z,86.9
2023-02-04T09:22:58.631Z,85.7
2023-02-04T09:34:58.715Z,85.9
2023-02-04T09:46:58.809Z,84.8
2023-02-04T09:58:58.727Z,81.8
2023-02-04T10:10:58.613Z,82.3
2023-02-04T10:22:58.683Z,79.4
2023-02-04T10:34:58.727Z,79.6
2023-02-04T10:46:58.673Z,79.4
2023-02-04T10:58:58.726Z,78.0
2023-02-04T11:10:58.620Z,76.1
2023-02-04T11:22:58.675Z,74.9
2023-02-04T11:34:58.690Z,76.2
2023-02-04T11:46:58.774Z,75.9
2023-02-04T11:58:58.706Z,75.6
2023-02-04T12:10:58.621Z,72.0
2023-02-04T12:22:58.729Z,70.0
2023-02-04T12:34:59.095Z,69.5
2023-02-04T12:46:58.813Z,68.5
2023-02-04T12:58:58.688Z,68.5
2023-02-04T13:10:58.720Z,67.8
2023-02-04T13:22:58.665Z,67.8
2023-02-04T13:34:58.696Z,67.3
2023-02-04T13:46:58.720Z,69.6
2023-02-04T13:58:58.662Z,65.9
2023-02-04T14:10:58.627Z,67.2
2023-02-04T14:22:58.612Z,68.9
2023-02-04T14:34:58.729Z,68.5
2023-02-04T14:46:58.745Z,69.0
2023-02-04T14:58:58.665Z,69.4
2023-02-04T15:10:58.697Z,71.1
2023-02-04T15:23:00.655Z,70.5
2023-02-04T15:34:58.609Z,71.2
2023-02-04T15:46:58.671Z,73.0
2023-02-04T15:59:00.961Z,74.2
2023-02-04T16:10:58.641Z,75.2
2023-02-04T16:22:58.713Z,76.2
2023-02-04T16:34:58.730Z,76.6
2023-02-04T16:46:58.611Z,77.8
2023-02-04T16:58:58.720Z,78.9
2023-02-04T17:10:58.627Z,80.4
2023-02-04T17:22:58.615Z,81.0
2023-02-04T17:34:58.712Z,81.4
2023-02-04T17:46:58.722Z,80.7
2023-02-04T17:58:58.613Z,81.4
2023-02-04T18:10:58.617Z,82.4
2023-02-04T18:22:58.701Z,83.6
2023-02-04T18:34:58.963Z,83.3
2023-02-04T18:46:58.735Z,83.4
2023-02-04T18:58:58.723Z,84.5
2023-02-04T19:10:58.720Z,85.5
2023-02-04T19:22:58.692Z,86.8
2023-02-04T19:34:58.611Z,87.0
2023-02-04T19:46:58.729Z,87.1
2023-02-04T19:58:58.682Z,88.4
2023-02-04T20:10:58.612Z,90.1
2023-02-04T20:22:58.734Z,89.9
2023-02-04T20:34:58.732Z,91.7
2023-02-04T20:46:58.620Z,91.6
2023-02-04T20:58:58.734Z,90.8
2023-02-04T21:10:58.619Z,91.5
2023-02-04T21:22:58.719Z,91.5
2023-02-04T21:34:58.697Z,92.2
2023-02-04T21:46:58.618Z,90.3
2023-02-04T21:58:58.613Z,88.6
2023-02-04T22:10:58.628Z,88.7
2023-02-04T22:22:58.702Z,88.9
2023-02-04T22:34:58.616Z,89.2
2023-02-04T22:46:58.844Z,89.4
2023-02-04T22:58:58.702Z,90.6
2023-02-04T23:10:58.617Z,91.4
2023-02-04T23:22:58.624Z,91.7
2023-02-04T23:34:58.610Z,91.7
2023-02-04T23:46:58.671Z,92.3
2023-02-04T23:58:58.634Z,93.0
